sensor_id;sensor_type;location;lat;lon;timestamp;pressure;altitude;pressure_sealevel;temperature;humidity
52975;BME280;38839;45.186;5.720;2023-02-05T19:42:33;100499.44;;;7.45;63.72
52975;BME280;38839;45.186;5.720;2023-02-05T19:44:59;100497.03;;;7.51;63.54
52975;BME280;38839;45.186;5.720;2023-02-05T19:47:26;100492.03;;;7.57;63.61
52975;BME280;38839;45.186;5.720;2023-02-05T19:49:52;100492.22;;;7.63;64.29
52975;BME280;38839;45.186;5.720;2023-02-05T19:52:18;100499.22;;;7.66;64.58
52975;BME280;38839;45.186;5.720;2023-02-05T19:54:43;100491.81;;;8.09;63.43
52975;BME280;38839;45.186;5.720;2023-02-05T19:57:09;100505.56;;;8.04;63.34
52975;BME280;38839;45.186;5.720;2023-02-05T19:59:34;100490.00;;;7.76;64.33
52975;BME280;38839;45.186;5.720;2023-02-05T20:01:59;100490.88;;;7.76;64.77
52975;BME280;38839;45.186;5.720;2023-02-05T20:04:25;100497.72;;;7.74;64.81
52975;BME280;38839;45.186;5.720;2023-02-05T20:06:57;100479.59;;;7.76;64.69
52975;BME280;38839;45.186;5.720;2023-02-05T20:09:23;100471.69;;;7.73;65.04
52975;BME280;38839;45.186;5.720;2023-02-05T20:11:49;100472.44;;;7.67;65.28
52975;BME280;38839;45.186;5.720;2023-02-05T20:14:17;100469.91;;;7.70;65.56
52975;BME280;38839;45.186;5.720;2023-02-05T20:16:43;100486.19;;;7.64;65.79
52975;BME280;38839;45.186;5.720;2023-02-05T20:19:11;100480.16;;;7.65;65.98
52975;BME280;38839;45.186;5.720;2023-02-05T20:21:38;100470.47;;;7.60;66.38
52975;BME280;38839;45.186;5.720;2023-02-05T20:24:04;100473.00;;;7.58;66.22
52975;BME280;38839;45.186;5.720;2023-02-05T20:26:31;100477.19;;;7.53;66.62
52975;BME280;38839;45.186;5.720;2023-02-05T20:28:57;100479.78;;;7.53;66.55
52975;BME280;38839;45.186;5.720;2023-02-05T20:31:48;100486.84;;;7.57;67.01
52975;BME280;38839;45.186;5.720;2023-02-05T20:34:16;100497.28;;;7.59;66.92
52975;BME280;38839;45.186;5.720;2023-02-05T20:36:48;100498.09;;;7.58;67.09
52975;BME280;38839;45.186;5.720;2023-02-05T20:39:15;100494.56;;;7.56;67.17
52975;BME280;38839;45.186;5.720;2023-02-05T20:41:45;100498.97;;;7.58;67.07
52975;BME280;38839;45.186;5.720;2023-02-05T20:44:11;100505.94;;;7.59;67.00
52975;BME280;38839;45.186;5.720;2023-02-05T20:46:37;100510.28;;;7.60;67.00
52975;BME280;38839;45.186;5.720;2023-02-05T20:49:02;100496.50;;;7.61;66.83
52975;BME280;38839;45.186;5.720;2023-02-05T20:51:28;100497.31;;;7.60;67.16
52975;BME280;38839;45.186;5.720;2023-02-05T20:53:58;100496.50;;;7.61;67.46
52975;BME280;38839;45.186;5.720;2023-02-05T20:56:25;100493.47;;;7.48;68.33
52975;BME280;38839;45.186;5.720;2023-02-05T20:58:51;100501.31;;;7.49;68.72
52975;BME280;38839;45.186;5.720;2023-02-05T21:01:22;100495.94;;;7.43;68.69
52975;BME280;38839;45.186;5.720;2023-02-05T21:03:53;100500.38;;;7.47;68.80
52975;BME280;38839;45.186;5.720;2023-02-05T21:06:20;100502.84;;;7.42;68.68
52975;BME280;38839;45.186;5.720;2023-02-05T21:08:48;100503.56;;;7.38;68.84
52975;BME280;38839;45.186;5.720;2023-02-05T21:11:15;100504.25;;;7.33;68.84
52975;BME280;38839;45.186;5.720;2023-02-05T21:13:42;100504.94;;;7.27;69.23
52975;BME280;38839;45.186;5.720;2023-02-05T21:16:08;100502.41;;;7.29;69.33
52975;BME280;38839;45.186;5.720;2023-02-05T21:18:33;100512.59;;;7.22;69.27
52975;BME280;38839;45.186;5.720;2023-02-05T21:21:13;100494.66;;;7.30;68.69
52975;BME280;38839;45.186;5.720;2023-02-05T21:23:39;100496.47;;;7.33;68.34
52975;BME280;38839;45.186;5.720;2023-02-05T21:26:05;100482.50;;;7.29;68.47
52975;BME280;38839;45.186;5.720;2023-02-05T21:28:31;100484.38;;;7.33;68.12
52975;BME280;38839;45.186;5.720;2023-02-05T21:31:04;100488.28;;;7.48;67.75
52975;BME280;38839;45.186;5.720;2023-02-05T21:33:30;100462.13;;;7.41;67.55
52975;BME280;38839;45.186;5.720;2023-02-05T21:35:55;100471.50;;;7.38;67.59
52975;BME280;38839;45.186;5.720;2023-02-05T21:38:21;100465.41;;;7.36;67.51
52975;BME280;38839;45.186;5.720;2023-02-05T21:40:46;100449.78;;;7.34;67.52
52975;BME280;38839;45.186;5.720;2023-02-05T21:43:11;100437.50;;;7.29;67.56
52975;BME280;38839;45.186;5.720;2023-02-05T21:45:37;100437.56;;;7.30;67.16
52975;BME280;38839;45.186;5.720;2023-02-05T21:48:02;100420.03;;;7.23;67.30
52975;BME280;38839;45.186;5.720;2023-02-05T21:50:28;100414.03;;;7.25;66.71
52975;BME280;38839;45.186;5.720;2023-02-05T21:52:54;100421.00;;;7.27;66.29
52975;BME280;38839;45.186;5.720;2023-02-05T21:55:20;100427.31;;;7.35;65.50
52975;BME280;38839;45.186;5.720;2023-02-05T21:57:46;100449.25;;;7.46;65.12
52975;BME280;38839;45.186;5.720;2023-02-05T22:00:12;100449.63;;;7.58;64.69
52975;BME280;38839;45.186;5.720;2023-02-05T22:02:41;100462.84;;;7.66;63.48
52975;BME280;38839;45.186;5.720;2023-02-05T22:05:06;100444.78;;;7.71;62.46
52975;BME280;38839;45.186;5.720;2023-02-05T22:07:32;100452.81;;;7.78;61.90
52975;BME280;38839;45.186;5.720;2023-02-05T22:09:57;100474.81;;;7.90;60.71
52975;BME280;38839;45.186;5.720;2023-02-05T22:12:23;100471.66;;;8.01;59.88
52975;BME280;38839;45.186;5.720;2023-02-05T22:14:48;100470.78;;;8.01;59.50
52975;BME280;38839;45.186;5.720;2023-02-05T22:17:14;100463.22;;;8.09;59.55
52975;BME280;38839;45.186;5.720;2023-02-05T22:19:39;100469.91;;;8.00;58.84
52975;BME280;38839;45.186;5.720;2023-02-05T22:22:05;100469.22;;;8.07;59.96
52975;BME280;38839;45.186;5.720;2023-02-05T22:24:30;100472.59;;;8.03;60.14
52975;BME280;38839;45.186;5.720;2023-02-05T22:26:55;100465.38;;;7.93;59.83
52975;BME280;38839;45.186;5.720;2023-02-05T22:29:21;100471.31;;;7.89;59.68
52975;BME280;38839;45.186;5.720;2023-02-05T22:31:51;100460.84;;;7.86;59.71
52975;BME280;38839;45.186;5.720;2023-02-05T22:34:17;100452.13;;;7.84;60.10
52975;BME280;38839;45.186;5.720;2023-02-05T22:36:42;100471.94;;;7.80;59.84
52975;BME280;38839;45.186;5.720;2023-02-05T22:39:08;100468.53;;;7.83;59.89
52975;BME280;38839;45.186;5.720;2023-02-05T22:41:36;100465.75;;;7.77;59.64
52975;BME280;38839;45.186;5.720;2023-02-05T22:44:03;100459.81;;;7.81;59.74
52975;BME280;38839;45.186;5.720;2023-02-05T22:46:31;100458.81;;;7.76;60.09
52975;BME280;38839;45.186;5.720;2023-02-05T22:48:59;100471.84;;;7.77;59.75
52975;BME280;38839;45.186;5.720;2023-02-05T22:51:31;100457.22;;;7.81;59.66
52975;BME280;38839;45.186;5.720;2023-02-05T22:53:58;100473.78;;;7.84;59.31
52975;BME280;38839;45.186;5.720;2023-02-05T22:56:25;100475.41;;;7.81;59.13
52975;BME280;38839;45.186;5.720;2023-02-05T22:58:51;100473.72;;;7.83;59.37
52975;BME280;38839;45.186;5.720;2023-02-05T23:01:23;100478.97;;;7.84;59.18
52975;BME280;38839;45.186;5.720;2023-02-05T23:03:49;100481.34;;;7.77;59.29
52975;BME280;38839;45.186;5.720;2023-02-05T23:06:18;100476.16;;;7.77;59.05
52975;BME280;38839;45.186;5.720;2023-02-05T23:08:54;100471.69;;;7.73;59.50
52975;BME280;38839;45.186;5.720;2023-02-05T23:11:21;100477.63;;;7.69;59.38
52975;BME280;38839;45.186;5.720;2023-02-05T23:13:47;100469.81;;;7.67;59.30
52975;BME280;38839;45.186;5.720;2023-02-05T23:16:16;100465.41;;;7.64;59.26
52975;BME280;38839;45.186;5.720;2023-02-05T23:18:42;100466.13;;;7.59;59.47
52975;BME280;38839;45.186;5.720;2023-02-05T23:21:09;100483.22;;;7.52;59.54
52975;BME280;38839;45.186;5.720;2023-02-05T23:23:35;100477.81;;;7.46;59.70
52975;BME280;38839;45.186;5.720;2023-02-05T23:26:08;100481.16;;;7.42;59.68
52975;BME280;38839;45.186;5.720;2023-02-05T23:28:34;100481.22;;;7.43;59.62
52975;BME280;38839;45.186;5.720;2023-02-05T23:31:00;100473.19;;;7.36;59.61
52975;BME280;38839;45.186;5.720;2023-02-05T23:33:26;100465.63;;;7.43;59.67
52975;BME280;38839;45.186;5.720;2023-02-05T23:35:51;100471.50;;;7.38;59.60
52975;BME280;38839;45.186;5.720;2023-02-05T23:38:17;100473.19;;;7.36;59.65
52975;BME280;38839;45.186;5.720;2023-02-05T23:40:42;100456.69;;;7.34;59.77
52975;BME280;38839;45.186;5.720;2023-02-05T23:43:07;100466.06;;;7.29;59.84
52975;BME280;38839;45.186;5.720;2023-02-05T23:45:33;100457.41;;;7.30;59.79
52975;BME280;38839;45.186;5.720;2023-02-05T23:47:58;100455.66;;;7.29;60.02
52975;BME280;38839;45.186;5.720;2023-02-05T23:50:25;100443.63;;;7.31;59.71
52975;BME280;38839;45.186;5.720;2023-02-05T23:52:51;100446.84;;;7.23;59.74
52975;BME280;38839;45.186;5.720;2023-02-05T23:55:16;100444.91;;;7.16;60.18
52975;BME280;38839;45.186;5.720;2023-02-05T23:57:41;100455.38;;;7.19;59.75
